Time;durP1;ratioP1;P1;durP2;ratioP2;P2;SDS_P1;SDS_P2;PMS_P1;PMS_P2;Temp;Humidity;BMP_temperature;BMP_pressure;BME280_temperature;BME280_humidity;BME280_pressure;Samples;Min_cycle;Max_cycle;Signal;HPM_P1;HPM_P2
2023/05/14 00:00:43;;;;;;;;;;;;;;;16.97;60.19;100338.69;4435546;32;34687;-78
2023/05/14 00:03:11;;;;;;;;;;;;;;;16.53;61.76;100333.03;4434436;32;33031;-78
2023/05/14 00:05:38;;;;;;;;;;;;;;;16.96;60.96;100322.94;4433831;32;34040;-78
2023/05/14 00:08:05;;;;;;;;;;;;;;;16.75;61.67;100321.47;4431794;32;34303;-77
2023/05/14 00:10:33;;;;;;;;;;;;;;;16.06;63.97;100319.44;4410802;32;34861;-78
2023/05/14 00:13:00;;;;;;;;;;;;;;;17.08;61.29;100311.06;4410684;32;33220;-78
2023/05/14 00:15:27;;;;;;;;;;;;;;;17.10;60.66;100308.50;4421409;32;34270;-76
2023/05/14 00:17:54;;;;;;;;;;;;;;;16.26;63.08;100310.50;4437284;32;33744;-77
2023/05/14 00:20:22;;;;;;;;;;;;;;;17.20;60.40;100307.00;4427457;32;34260;-79
2023/05/14 00:22:49;;;;;;;;;;;;;;;16.89;61.13;100311.41;4436135;32;33141;-79
2023/05/14 00:25:17;;;;;;;;;;;;;;;17.26;59.50;100302.78;4413249;32;34957;-77
2023/05/14 00:27:44;;;;;;;;;;;;;;;16.12;62.96;100309.16;4432951;32;34914;-78
2023/05/14 00:30:11;;;;;;;;;;;;;;;16.08;64.00;100309.91;4427624;32;34129;-77
2023/05/14 00:32:39;;;;;;;;;;;;;;;17.07;60.50;100304.06;4413479;32;33829;-79
2023/05/14 00:35:06;;;;;;;;;;;;;;;16.86;60.51;100298.25;4431542;32;33643;-79
2023/05/14 00:37:35;;;;;;;;;;;;;;;16.21;62.50;100301.63;4433884;32;33865;-76
2023/05/14 00:40:03;;;;;;;;;;;;;;;17.21;59.12;100295.66;4430408;32;34157;-78
2023/05/14 00:42:30;;;;;;;;;;;;;;;16.38;62.04;100293.38;4425202;32;33704;-77
2023/05/14 00:44:57;;;;;;;;;;;;;;;16.15;63.13;100290.97;4430156;32;34924;-78
2023/05/14 00:47:25;;;;;;;;;;;;;;;16.12;63.71;100294.37;4436768;32;34974;-79
2023/05/14 00:49:52;;;;;;;;;;;;;;;15.97;63.81;100287.78;4437233;32;34996;-77
2023/05/14 00:52:19;;;;;;;;;;;;;;;16.68;61.56;100278.53;4419737;32;33153;-77
2023/05/14 00:54:47;;;;;;;;;;;;;;;16.04;63.90;100281.94;4428241;32;34009;-76
2023/05/14 00:57:14;;;;;;;;;;;;;;;16.06;63.55;100275.00;4430802;32;33454;-77
2023/05/14 00:59:41;;;;;;;;;;;;;;;16.35;63.24;100272.38;4443807;32;34678;-79
2023/05/14 01:02:09;;;;;;;;;;;;;;;17.09;60.48;100276.22;4445362;32;32763;-79
2023/05/14 01:04:36;;;;;;;;;;;;;;;16.29;62.36;100278.31;4428898;32;32318;-79
2023/05/14 01:07:04;;;;;;;;;;;;;;;15.91;63.85;100273.69;4448918;32;34709;-77
2023/05/14 01:09:35;;;;;;;;;;;;;;;16.31;62.34;100267.06;4449760;32;34167;-78
2023/05/14 01:12:05;;;;;;;;;;;;;;;15.83;64.13;100267.34;4427374;32;33438;-76
2023/05/14 01:14:47;;;;;;;;;;;;;;;15.95;63.23;100266.84;4445118;32;34193;-76
2023/05/14 01:17:15;;;;;;;;;;;;;;;16.81;60.69;100264.09;4446039;32;33589;-79
2023/05/14 01:19:42;;;;;;;;;;;;;;;16.87;60.03;100258.16;4438509;32;34694;-78
2023/05/14 01:22:10;;;;;;;;;;;;;;;16.20;61.90;100259.75;4425299;32;33919;-78
2023/05/14 01:24:38;;;;;;;;;;;;;;;16.44;61.18;100254.34;4450033;32;33468;-77
2023/05/14 01:27:24;;;;;;;;;;;;;;;16.96;59.27;100247.94;4443339;32;33996;-78
2023/05/14 01:30:14;;;;;;;;;;;;;;;16.85;59.81;100249.38;4428188;32;34418;-78
2023/05/14 01:32:42;;;;;;;;;;;;;;;16.36;61.23;100251.50;4436319;32;33692;-78
2023/05/14 01:35:10;;;;;;;;;;;;;;;15.33;64.38;100245.72;4436288;32;34854;-78
2023/05/14 01:37:37;;;;;;;;;;;;;;;15.09;65.23;100238.84;4428431;32;33828;-78
2023/05/14 01:40:05;;;;;;;;;;;;;;;15.62;63.86;100232.69;4435554;32;34970;-78
2023/05/14 01:42:32;;;;;;;;;;;;;;;16.23;62.03;100238.94;4439881;32;33898;-79
2023/05/14 01:44:59;;;;;;;;;;;;;;;16.01;62.80;100224.34;4439171;32;34746;-79
2023/05/14 01:47:27;;;;;;;;;;;;;;;16.04;61.92;100224.44;4440333;32;33332;-78
2023/05/14 01:49:54;;;;;;;;;;;;;;;15.64;63.33;100213.63;4437690;32;34743;-79
2023/05/14 01:52:21;;;;;;;;;;;;;;;15.51;64.09;100215.00;4451747;32;33183;-77
2023/05/14 01:54:49;;;;;;;;;;;;;;;15.56;63.83;100203.78;4438991;32;33575;-78
2023/05/14 01:57:16;;;;;;;;;;;;;;;15.20;65.35;100202.69;4442038;32;33870;-77
2023/05/14 01:59:43;;;;;;;;;;;;;;;15.91;62.52;100208.38;4438982;32;34959;-79
2023/05/14 02:02:11;;;;;;;;;;;;;;;15.19;64.59;100200.03;4448607;32;33195;-78
2023/05/14 02:04:38;;;;;;;;;;;;;;;15.85;62.94;100207.31;4450478;32;34128;-77
2023/05/14 02:07:05;;;;;;;;;;;;;;;15.89;61.88;100207.44;4443287;32;35125;-77
2023/05/14 02:09:32;;;;;;;;;;;;;;;15.76;62.94;100197.50;4448761;32;33943;-78
2023/05/14 02:12:00;;;;;;;;;;;;;;;15.56;63.44;100201.19;4444625;32;33519;-79
2023/05/14 02:14:27;;;;;;;;;;;;;;;15.42;63.58;100201.62;4451565;32;33937;-78
2023/05/14 02:16:55;;;;;;;;;;;;;;;15.56;63.51;100203.78;4441041;32;33863;-78
2023/05/14 02:19:22;;;;;;;;;;;;;;;16.69;59.97;100196.63;4435114;32;35035;-76
2023/05/14 02:21:49;;;;;;;;;;;;;;;16.51;60.49;100197.03;4442714;32;33677;-79
2023/05/14 02:24:16;;;;;;;;;;;;;;;15.44;62.82;100197.34;4441218;32;34890;-78
2023/05/14 02:26:44;;;;;;;;;;;;;;;15.56;63.28;100195.97;4442710;32;34191;-78
2023/05/14 02:29:11;;;;;;;;;;;;;;;16.15;61.10;100185.53;4440716;32;34972;-78
2023/05/14 02:31:38;;;;;;;;;;;;;;;16.21;60.83;100196.19;4438834;32;33037;-79
2023/05/14 02:34:06;;;;;;;;;;;;;;;16.12;60.92;100186.34;4437913;32;32224;-78
2023/05/14 02:36:33;;;;;;;;;;;;;;;15.85;62.80;100192.53;4438346;32;34196;-76
2023/05/14 02:39:01;;;;;;;;;;;;;;;16.06;61.34;100183.56;4438965;32;34821;-77
2023/05/14 02:41:28;;;;;;;;;;;;;;;16.84;58.82;100184.81;4442805;32;34034;-77
2023/05/14 02:43:56;;;;;;;;;;;;;;;16.61;59.57;100187.69;4446555;32;34632;-77
2023/05/14 02:46:23;;;;;;;;;;;;;;;15.75;61.77;100194.84;4439059;32;34284;-78
2023/05/14 02:48:50;;;;;;;;;;;;;;;17.14;57.50;100189.94;4447695;32;34743;-79
2023/05/14 02:51:19;;;;;;;;;;;;;;;16.60;59.51;100190.28;4443407;32;33184;-79
2023/05/14 02:53:46;;;;;;;;;;;;;;;16.69;58.67;100186.16;4434396;32;34092;-78
2023/05/14 02:56:13;;;;;;;;;;;;;;;16.08;60.54;100193.19;4443448;32;33670;-77
2023/05/14 02:58:41;;;;;;;;;;;;;;;15.33;63.51;100191.78;4450545;32;33935;-79
2023/05/14 03:01:08;;;;;;;;;;;;;;;15.07;64.40;100183.13;4448079;32;31804;-77
2023/05/14 03:03:37;;;;;;;;;;;;;;;15.53;63.50;100194.16;4450475;32;34246;-78
2023/05/14 03:06:05;;;;;;;;;;;;;;;15.36;63.49;100179.69;4440952;32;34830;-77
2023/05/14 03:08:32;;;;;;;;;;;;;;;16.04;61.26;100169.56;4447873;32;34256;-77
2023/05/14 03:10:59;;;;;;;;;;;;;;;15.97;61.58;100173.72;4430922;32;33605;-78
2023/05/14 03:13:27;;;;;;;;;;;;;;;15.08;64.62;100181.41;4447734;32;33903;-77
2023/05/14 03:15:54;;;;;;;;;;;;;;;16.71;59.57;100184.47;4438900;32;33812;-79
2023/05/14 03:18:21;;;;;;;;;;;;;;;15.81;61.78;100184.56;4442322;32;34558;-77
2023/05/14 03:20:49;;;;;;;;;;;;;;;15.57;62.93;100187.28;4425649;32;32887;-79
2023/05/14 03:23:16;;;;;;;;;;;;;;;16.18;61.14;100175.19;4438283;32;34182;-78
2023/05/14 03:25:44;;;;;;;;;;;;;;;15.98;62.09;100174.62;4428536;32;33638;-78
2023/05/14 03:28:11;;;;;;;;;;;;;;;16.03;61.19;100173.91;4448333;32;33975;-78
2023/05/14 03:30:38;;;;;;;;;;;;;;;16.03;61.48;100167.78;4435982;32;33161;-78
2023/05/14 03:33:06;;;;;;;;;;;;;;;15.60;63.32;100169.09;4421091;32;34758;-79
2023/05/14 03:35:33;;;;;;;;;;;;;;;15.46;63.59;100166.94;4418490;32;35421;-77
2023/05/14 03:38:01;;;;;;;;;;;;;;;16.26;60.97;100168.44;4438267;32;35171;-77
2023/05/14 03:40:30;;;;;;;;;;;;;;;15.87;62.00;100171.69;4451587;32;33855;-76
2023/05/14 03:42:57;;;;;;;;;;;;;;;16.13;61.21;100177.69;4435749;32;34374;-78
2023/05/14 03:45:27;;;;;;;;;;;;;;;16.38;60.59;100183.56;4438313;32;33958;-77
2023/05/14 03:47:58;;;;;;;;;;;;;;;15.90;61.73;100180.50;4434577;32;33770;-77
2023/05/14 03:50:25;;;;;;;;;;;;;;;16.17;60.97;100176.00;4450873;32;33960;-76
2023/05/14 03:52:53;;;;;;;;;;;;;;;16.08;60.82;100168.81;4443698;32;33672;-78
2023/05/14 03:55:22;;;;;;;;;;;;;;;16.46;59.98;100155.91;4439849;32;33898;-78
2023/05/14 03:57:49;;;;;;;;;;;;;;;16.18;60.87;100159.50;4449226;32;33921;-77
2023/05/14 04:00:16;;;;;;;;;;;;;;;15.45;63.17;100162.59;4440701;32;33588;-77
2023/05/14 04:02:44;;;;;;;;;;;;;;;15.87;61.27;100164.72;4439300;32;33482;-78
2023/05/14 04:05:11;;;;;;;;;;;;;;;15.50;62.68;100168.81;4442603;32;34116;-76
2023/05/14 04:07:39;;;;;;;;;;;;;;;15.95;61.57;100164.94;4437385;32;33467;-77
2023/05/14 04:10:06;;;;;;;;;;;;;;;15.32;63.38;100168.25;4434807;32;33931;-79
2023/05/14 04:12:34;;;;;;;;;;;;;;;15.61;62.56;100163.06;4452359;32;33744;-78
2023/05/14 04:15:01;;;;;;;;;;;;;;;15.83;62.13;100162.87;4440098;32;33879;-79
2023/05/14 04:17:29;;;;;;;;;;;;;;;15.36;63.05;100158.81;4447887;32;33000;-78
2023/05/14 04:19:56;;;;;;;;;;;;;;;14.81;65.32;100160.50;4448366;32;32903;-78
2023/05/14 04:22:23;;;;;;;;;;;;;;;15.60;62.95;100163.88;4449779;32;34818;-78
2023/05/14 04:24:52;;;;;;;;;;;;;;;15.96;61.63;100155.41;4447585;32;33998;-79
2023/05/14 04:27:22;;;;;;;;;;;;;;;15.66;61.99;100153.63;4440105;32;34082;-79
2023/05/14 04:29:49;;;;;;;;;;;;;;;14.87;64.46;100153.78;4445971;32;32467;-79
2023/05/14 04:32:17;;;;;;;;;;;;;;;15.35;63.03;100155.28;4440829;32;34736;-78
2023/05/14 04:34:45;;;;;;;;;;;;;;;15.20;63.45;100147.88;4444114;32;33930;-78
2023/05/14 04:37:13;;;;;;;;;;;;;;;15.11;63.67;100153.69;4437605;32;34202;-80
2023/05/14 04:39:40;;;;;;;;;;;;;;;14.93;64.11;100158.28;4452245;32;33523;-77
2023/05/14 04:42:07;;;;;;;;;;;;;;;15.06;63.76;100156.97;4451568;32;34216;-78
2023/05/14 04:44:36;;;;;;;;;;;;;;;15.40;63.11;100156.31;4451559;32;34997;-77
2023/05/14 04:47:03;;;;;;;;;;;;;;;15.70;61.61;100160.69;4448359;32;35165;-79
2023/05/14 04:49:31;;;;;;;;;;;;;;;15.77;61.10;100165.31;4436838;32;34022;-79
2023/05/14 04:51:58;;;;;;;;;;;;;;;15.05;63.62;100161.31;4451408;32;33756;-78
2023/05/14 04:54:25;;;;;;;;;;;;;;;15.70;61.47;100168.53;4452211;32;34274;-78
2023/05/14 04:56:54;;;;;;;;;;;;;;;16.00;60.69;100159.88;4451330;32;34098;-78
2023/05/14 04:59:21;;;;;;;;;;;;;;;14.82;64.04;100157.97;4448405;32;33139;-78
2023/05/14 05:01:50;;;;;;;;;;;;;;;15.20;63.33;100154.81;4439095;32;33739;-78
2023/05/14 05:04:18;;;;;;;;;;;;;;;15.21;63.11;100153.97;4444448;32;33739;-77
2023/05/14 05:06:45;;;;;;;;;;;;;;;15.23;63.06;100158.41;4448512;32;34194;-78
2023/05/14 05:09:12;;;;;;;;;;;;;;;15.58;62.09;100149.91;4438666;32;33890;-78
2023/05/14 05:11:40;;;;;;;;;;;;;;;15.57;62.42;100148.09;4432447;32;34034;-77
2023/05/14 05:14:07;;;;;;;;;;;;;;;15.85;61.31;100148.13;4448333;32;34906;-78
2023/05/14 05:16:34;;;;;;;;;;;;;;;15.54;62.65;100143.69;4438749;32;34845;-79
2023/05/14 05:19:02;;;;;;;;;;;;;;;15.85;61.19;100144.63;4449779;32;33662;-79
2023/05/14 05:21:29;;;;;;;;;;;;;;;15.85;61.33;100145.50;4444661;32;35038;-77
2023/05/14 05:23:56;;;;;;;;;;;;;;;15.34;62.68;100153.53;4437530;32;33647;-77
2023/05/14 05:26:25;;;;;;;;;;;;;;;15.80;61.90;100139.28;4440709;32;33399;-78
2023/05/14 05:28:52;;;;;;;;;;;;;;;15.97;60.91;100139.75;4418300;32;32746;-78
2023/05/14 05:31:20;;;;;;;;;;;;;;;15.12;63.42;100142.44;4445282;32;34537;-78
2023/05/14 05:33:47;;;;;;;;;;;;;;;15.73;61.33;100145.16;4447228;32;35061;-77
2023/05/14 05:36:14;;;;;;;;;;;;;;;15.72;61.66;100138.13;4435810;32;33276;-79
2023/05/14 05:38:42;;;;;;;;;;;;;;;15.66;61.63;100144.03;4444980;32;33442;-78
2023/05/14 05:41:10;;;;;;;;;;;;;;;15.24;63.62;100148.84;4447562;32;33970;-77
2023/05/14 05:43:37;;;;;;;;;;;;;;;15.80;61.94;100136.69;4439302;32;34146;-79
2023/05/14 05:46:05;;;;;;;;;;;;;;;15.62;62.30;100139.56;4454669;32;34272;-77
2023/05/14 05:48:33;;;;;;;;;;;;;;;15.69;62.60;100151.09;4453935;32;33445;-78
2023/05/14 05:51:00;;;;;;;;;;;;;;;15.34;63.59;100151.81;4450445;32;33699;-78
2023/05/14 05:53:27;;;;;;;;;;;;;;;15.75;62.79;100137.38;4436715;32;34064;-79
2023/05/14 05:55:55;;;;;;;;;;;;;;;16.15;61.22;100149.84;4447766;32;33913;-79
2023/05/14 05:58:23;;;;;;;;;;;;;;;16.47;60.07;100152.44;4448860;32;33261;-78
2023/05/14 06:00:50;;;;;;;;;;;;;;;16.15;61.30;100165.53;4445188;32;34240;-76
2023/05/14 06:03:18;;;;;;;;;;;;;;;16.89;59.21;100152.69;4441122;32;34277;-77
2023/05/14 06:05:45;;;;;;;;;;;;;;;17.04;59.19;100157.41;4448565;32;34824;-79
2023/05/14 06:08:12;;;;;;;;;;;;;;;15.33;64.07;100159.56;4439020;32;33701;-76
2023/05/14 06:10:40;;;;;;;;;;;;;;;16.51;60.60;100159.50;4448802;32;34107;-78
2023/05/14 06:13:07;;;;;;;;;;;;;;;15.77;63.00;100165.31;4439760;32;34230;-79
2023/05/14 06:15:34;;;;;;;;;;;;;;;16.44;61.12;100155.00;4442991;32;34805;-79
2023/05/14 06:18:02;;;;;;;;;;;;;;;17.38;58.50;100158.19;4447933;32;33052;-76
2023/05/14 06:20:29;;;;;;;;;;;;;;;17.61;57.89;100163.06;4434496;32;34836;-79
2023/05/14 06:22:56;;;;;;;;;;;;;;;17.41;58.68;100168.75;4447746;32;33731;-76
2023/05/14 06:25:24;;;;;;;;;;;;;;;17.24;58.95;100167.47;4451198;32;34404;-78
2023/05/14 06:27:51;;;;;;;;;;;;;;;17.47;58.28;100174.12;4447882;32;34206;-77
2023/05/14 06:30:18;;;;;;;;;;;;;;;17.32;58.87;100167.66;4423780;32;33806;-79
2023/05/14 06:32:46;;;;;;;;;;;;;;;17.23;59.51;100163.06;4432741;32;34109;-78
2023/05/14 06:35:13;;;;;;;;;;;;;;;17.14;59.46;100168.12;4443506;32;34040;-77
2023/05/14 06:37:41;;;;;;;;;;;;;;;16.93;60.20;100164.12;4447289;32;34134;-78
2023/05/14 06:40:09;;;;;;;;;;;;;;;17.32;59.00;100160.69;4447205;32;34294;-77
2023/05/14 06:42:36;;;;;;;;;;;;;;;17.61;58.24;100160.47;4442454;32;35028;-77
2023/05/14 06:45:04;;;;;;;;;;;;;;;17.71;57.76;100153.69;4443899;32;33482;-79
2023/05/14 06:47:32;;;;;;;;;;;;;;;17.16;60.07;100148.09;4439597;32;33833;-80
2023/05/14 06:50:00;;;;;;;;;;;;;;;17.23;59.78;100148.28;4423151;32;789203;-79
2023/05/14 06:52:28;;;;;;;;;;;;;;;16.91;60.91;100147.50;4428700;32;33232;-78
2023/05/14 06:54:55;;;;;;;;;;;;;;;16.93;61.46;100144.94;4438709;32;34234;-75
2023/05/14 06:57:23;;;;;;;;;;;;;;;17.27;60.49;100144.00;4443741;32;33911;-80
2023/05/14 06:59:50;;;;;;;;;;;;;;;16.85;61.61;100142.13;4445009;32;33999;-78
2023/05/14 07:02:17;;;;;;;;;;;;;;;16.90;61.91;100137.88;4446366;32;34162;-80
2023/05/14 07:04:45;;;;;;;;;;;;;;;17.22;60.61;100140.38;4445317;32;34166;-78
2023/05/14 07:07:14;;;;;;;;;;;;;;;17.22;60.74;100132.53;4444111;32;33192;-77
2023/05/14 07:09:41;;;;;;;;;;;;;;;17.70;59.82;100121.38;4448245;32;33678;-78
2023/05/14 07:12:09;;;;;;;;;;;;;;;17.87;59.82;100116.50;4427216;32;33386;-80
2023/05/14 07:14:36;;;;;;;;;;;;;;;17.98;59.18;100114.09;4432348;32;35498;-78
2023/05/14 07:17:03;;;;;;;;;;;;;;;16.96;62.85;100119.72;4434253;32;33640;-80
2023/05/14 07:19:31;;;;;;;;;;;;;;;17.83;59.96;100115.53;4438217;32;33950;-78
2023/05/14 07:21:58;;;;;;;;;;;;;;;17.18;61.99;100122.84;4448977;32;33984;-78
2023/05/14 07:24:25;;;;;;;;;;;;;;;16.84;62.82;100117.69;4439976;32;34174;-80
2023/05/14 07:26:53;;;;;;;;;;;;;;;17.01;62.34;100105.00;4440785;32;33997;-79
2023/05/14 07:29:20;;;;;;;;;;;;;;;17.16;62.44;100114.06;4441814;32;34148;-80
2023/05/14 07:31:47;;;;;;;;;;;;;;;17.57;60.71;100103.62;4429013;32;33518;-81
2023/05/14 07:34:15;;;;;;;;;;;;;;;17.96;59.35;100116.66;4441340;32;33884;-79
2023/05/14 07:36:42;;;;;;;;;;;;;;;17.87;60.29;100112.16;4432324;32;32602;-78
2023/05/14 07:39:09;;;;;;;;;;;;;;;17.74;61.68;100106.59;4445241;32;32718;-80
2023/05/14 07:41:37;;;;;;;;;;;;;;;17.67;61.99;100105.56;4440631;32;33701;-78
2023/05/14 07:44:04;;;;;;;;;;;;;;;17.19;63.01;100111.50;4446150;32;34197;-78
2023/05/14 07:46:32;;;;;;;;;;;;;;;16.90;63.97;100103.84;4435799;32;32796;-77
2023/05/14 07:48:59;;;;;;;;;;;;;;;17.11;63.53;100093.00;4442502;32;34566;-78
2023/05/14 07:51:27;;;;;;;;;;;;;;;17.64;61.60;100089.81;4440379;32;34287;-79
2023/05/14 07:53:54;;;;;;;;;;;;;;;18.35;60.11;100091.19;4452712;32;34386;-78
2023/05/14 07:56:22;;;;;;;;;;;;;;;18.43;58.93;100092.22;4439950;32;33307;-79
2023/05/14 07:58:49;;;;;;;;;;;;;;;17.35;62.67;100094.44;4443953;32;33818;-76
2023/05/14 08:01:17;;;;;;;;;;;;;;;17.06;63.65;100092.91;4448504;32;33899;-77
2023/05/14 08:03:44;;;;;;;;;;;;;;;17.07;63.17;100088.53;4442137;32;34913;-78
2023/05/14 08:06:12;;;;;;;;;;;;;;;18.39;59.08;100079.91;4453333;32;33284;-78
2023/05/14 08:08:39;;;;;;;;;;;;;;;17.69;61.75;100073.34;4432598;32;32965;-78
2023/05/14 08:11:07;;;;;;;;;;;;;;;17.49;61.91;100078.13;4451170;32;34625;-78
2023/05/14 08:13:34;;;;;;;;;;;;;;;17.24;63.00;100068.00;4451002;32;34404;-77
2023/05/14 08:16:01;;;;;;;;;;;;;;;17.24;62.79;100061.00;4438045;32;33450;-78
2023/05/14 08:18:29;;;;;;;;;;;;;;;17.43;62.57;100059.69;4448406;32;33879;-79
2023/05/14 08:20:56;;;;;;;;;;;;;;;17.27;63.14;100055.88;4440323;32;33858;-79
2023/05/14 08:23:24;;;;;;;;;;;;;;;17.45;62.75;100055.34;4442488;32;33757;-79
2023/05/14 08:25:51;;;;;;;;;;;;;;;17.14;64.07;100069.53;4443399;32;33377;-78
2023/05/14 08:28:18;;;;;;;;;;;;;;;16.94;64.61;100060.31;4441903;32;34327;-80
2023/05/14 08:30:46;;;;;;;;;;;;;;;17.30;63.88;100057.66;4442420;32;34249;-79
2023/05/14 08:33:13;;;;;;;;;;;;;;;18.50;60.12;100046.84;4444308;32;33845;-76
2023/05/14 08:35:41;;;;;;;;;;;;;;;17.43;62.38;100046.59;4453348;32;32716;-78
2023/05/14 08:38:08;;;;;;;;;;;;;;;17.95;61.00;100040.66;4431827;32;33907;-78
2023/05/14 08:40:35;;;;;;;;;;;;;;;18.16;60.88;100034.94;4441914;32;34227;-78
2023/05/14 08:43:02;;;;;;;;;;;;;;;18.25;61.21;100040.31;4444747;32;34135;-76
2023/05/14 08:45:33;;;;;;;;;;;;;;;17.42;63.54;100038.69;4441153;32;33406;-79
2023/05/14 08:48:00;;;;;;;;;;;;;;;18.57;60.60;100037.37;4440019;32;34762;-79
2023/05/14 08:50:28;;;;;;;;;;;;;;;18.36;60.98;100028.28;4433123;32;34577;-81
2023/05/14 08:52:57;;;;;;;;;;;;;;;17.97;62.17;100033.72;4445726;32;33909;-77
2023/05/14 08:55:24;;;;;;;;;;;;;;;17.63;63.85;100033.00;4430070;32;33677;-77
2023/05/14 08:57:52;;;;;;;;;;;;;;;17.50;64.29;100037.16;4443629;32;34220;-79
2023/05/14 09:00:19;;;;;;;;;;;;;;;17.47;64.55;100037.94;4448956;32;34211;-78
2023/05/14 09:02:47;;;;;;;;;;;;;;;17.76;63.77;100034.16;4449619;32;34182;-80
2023/05/14 09:05:14;;;;;;;;;;;;;;;18.81;59.94;100031.62;4433962;32;33417;-79
2023/05/14 09:07:42;;;;;;;;;;;;;;;17.96;62.36;100031.94;4431409;32;33947;-77
2023/05/14 09:10:09;;;;;;;;;;;;;;;18.61;60.70;100036.56;4444020;32;34282;-75
2023/05/14 09:12:36;;;;;;;;;;;;;;;18.75;60.75;100042.00;4425484;32;34014;-78
2023/05/14 09:15:04;;;;;;;;;;;;;;;18.69;60.73;100041.91;4437929;32;33622;-78
2023/05/14 09:17:31;;;;;;;;;;;;;;;18.41;61.49;100036.25;4439232;32;33104;-78
2023/05/14 09:19:59;;;;;;;;;;;;;;;18.36;61.91;100030.03;4427999;32;33711;-79
2023/05/14 09:22:28;;;;;;;;;;;;;;;18.10;62.25;100030.47;4433936;32;33952;-75
2023/05/14 09:25:05;;;;;;;;;;;;;;;18.49;60.95;100024.13;4436063;32;34034;-79
2023/05/14 09:27:33;;;;;;;;;;;;;;;18.35;61.75;100021.28;4439808;32;34367;-81
2023/05/14 09:30:03;;;;;;;;;;;;;;;18.86;60.32;100011.59;4442449;32;35668;-77
2023/05/14 09:32:34;;;;;;;;;;;;;;;18.65;61.62;100005.12;4440934;32;34891;-77
2023/05/14 09:35:18;;;;;;;;;;;;;;;18.06;62.89;100007.69;4439569;32;34119;-81
2023/05/14 09:37:52;;;;;;;;;;;;;;;18.53;61.35;100007.56;4429905;32;33462;-79
2023/05/14 09:40:20;;;;;;;;;;;;;;;17.78;63.98;100012.34;4431319;32;32720;-77
2023/05/14 09:42:48;;;;;;;;;;;;;;;18.35;62.25;100000.31;4440476;32;34284;-80
2023/05/14 09:45:15;;;;;;;;;;;;;;;18.18;63.19;99986.91;4427443;32;34281;-77
2023/05/14 09:47:43;;;;;;;;;;;;;;;18.99;60.57;99989.03;4442758;32;34684;-79
2023/05/14 09:50:11;;;;;;;;;;;;;;;17.98;63.83;99983.94;4440994;32;34370;-78
2023/05/14 09:52:38;;;;;;;;;;;;;;;17.73;64.85;99982.59;4445867;32;34275;-78
2023/05/14 09:55:06;;;;;;;;;;;;;;;18.94;61.86;99978.47;4443092;32;33243;-77
2023/05/14 09:57:34;;;;;;;;;;;;;;;19.43;59.90;99973.84;4435254;32;34644;-77
2023/05/14 10:00:01;;;;;;;;;;;;;;;19.31;60.37;99965.78;4440884;32;33962;-76
2023/05/14 10:02:36;;;;;;;;;;;;;;;18.45;63.19;99955.00;4435289;32;33974;-79
2023/05/14 10:05:05;;;;;;;;;;;;;;;18.17;63.77;99942.31;4444989;32;33612;-76
2023/05/14 10:07:37;;;;;;;;;;;;;;;18.40;64.02;99946.16;4443380;32;35354;-77
2023/05/14 10:10:06;;;;;;;;;;;;;;;18.41;63.95;99939.19;4444964;32;33831;-78
2023/05/14 10:12:35;;;;;;;;;;;;;;;18.14;64.15;99932.66;4448119;32;33947;-77
2023/05/14 10:15:03;;;;;;;;;;;;;;;18.26;64.63;99917.09;4430998;32;33889;-78
2023/05/14 10:17:31;;;;;;;;;;;;;;;17.60;66.39;99907.25;4432715;32;34140;-77
2023/05/14 10:19:58;;;;;;;;;;;;;;;17.60;66.61;99905.50;4428233;32;34217;-75
2023/05/14 10:22:26;;;;;;;;;;;;;;;17.82;66.28;99893.66;4436192;32;33917;-79
2023/05/14 10:24:54;;;;;;;;;;;;;;;17.79;67.14;99872.66;4439580;32;32826;-78
2023/05/14 10:27:21;;;;;;;;;;;;;;;18.26;66.70;99864.66;4428771;32;34504;-77
2023/05/14 10:29:55;;;;;;;;;;;;;;;18.45;64.97;99876.31;4430604;32;34904;-77
2023/05/14 10:32:24;;;;;;;;;;;;;;;18.43;65.02;99887.66;4449448;32;34509;-76
2023/05/14 10:34:52;;;;;;;;;;;;;;;18.03;65.45;99910.63;4441874;32;33657;-77
2023/05/14 10:37:24;;;;;;;;;;;;;;;18.59;63.58;99907.09;4440623;32;34161;-77
2023/05/14 10:39:52;;;;;;;;;;;;;;;18.64;63.68;99898.44;4430524;32;34335;-79
2023/05/14 10:42:22;;;;;;;;;;;;;;;19.23;61.80;99899.19;4445238;32;34342;-78
2023/05/14 10:44:57;;;;;;;;;;;;;;;19.28;61.16;99892.25;4445535;32;32465;-77
2023/05/14 10:47:25;;;;;;;;;;;;;;;19.19;60.57;99889.50;4448093;32;33588;-77
2023/05/14 10:49:56;;;;;;;;;;;;;;;17.74;64.44;99899.63;4429288;32;34030;-75
2023/05/14 10:52:23;;;;;;;;;;;;;;;17.65;65.30;99889.84;4446366;32;34235;-75
2023/05/14 10:54:51;;;;;;;;;;;;;;;17.49;66.21;99891.31;4442818;32;33315;-77
2023/05/14 10:57:19;;;;;;;;;;;;;;;18.25;64.00;99889.13;4445562;32;34986;-76
2023/05/14 10:59:47;;;;;;;;;;;;;;;18.56;62.90;99889.59;4429584;32;34762;-76
2023/05/14 11:02:24;;;;;;;;;;;;;;;17.47;66.80;99888.66;4446115;32;34970;-76
2023/05/14 11:04:52;;;;;;;;;;;;;;;17.44;65.92;99893.87;4447623;32;33417;-76
2023/05/14 11:07:21;;;;;;;;;;;;;;;18.27;62.81;99889.13;4446808;32;33918;-76
2023/05/14 11:09:49;;;;;;;;;;;;;;;18.17;63.14;99884.63;4429470;32;33731;-76
2023/05/14 11:12:17;;;;;;;;;;;;;;;18.17;63.59;99875.00;4434212;32;34550;-74
2023/05/14 11:14:44;;;;;;;;;;;;;;;17.56;65.35;99868.72;4447409;32;34040;-75
2023/05/14 11:17:11;;;;;;;;;;;;;;;18.16;63.27;99873.25;4429398;32;34365;-78
2023/05/14 11:19:38;;;;;;;;;;;;;;;18.13;63.06;99873.19;4430953;32;35031;-77
2023/05/14 11:22:06;;;;;;;;;;;;;;;17.95;63.47;99878.19;4433906;32;35030;-78
2023/05/14 11:24:34;;;;;;;;;;;;;;;17.26;65.63;99869.94;4444385;32;33916;-78
2023/05/14 11:27:01;;;;;;;;;;;;;;;17.40;65.27;99868.47;4448874;32;34843;-78
2023/05/14 11:29:29;;;;;;;;;;;;;;;17.70;64.06;99867.25;4431864;32;33682;-77
2023/05/14 11:31:56;;;;;;;;;;;;;;;19.19;59.66;99871.13;4440302;32;33919;-78
2023/05/14 11:34:23;;;;;;;;;;;;;;;18.07;62.81;99870.50;4441436;32;34082;-76
2023/05/14 11:36:50;;;;;;;;;;;;;;;18.27;63.27;99871.69;4449240;32;35073;-77
2023/05/14 11:39:18;;;;;;;;;;;;;;;19.47;59.14;99876.66;4442321;32;34142;-75
2023/05/14 11:41:45;;;;;;;;;;;;;;;18.88;61.10;99876.03;4446448;32;33843;-77
2023/05/14 11:44:12;;;;;;;;;;;;;;;19.25;59.64;99871.19;4434872;32;32831;-76
2023/05/14 11:46:40;;;;;;;;;;;;;;;18.96;60.77;99863.87;4449496;32;34168;-78
2023/05/14 11:49:07;;;;;;;;;;;;;;;18.87;61.41;99863.75;4448314;32;34165;-76
2023/05/14 11:51:34;;;;;;;;;;;;;;;19.78;58.63;99867.34;4447290;32;34086;-75
2023/05/14 11:54:02;;;;;;;;;;;;;;;19.34;59.99;99866.03;4447214;32;33041;-75
2023/05/14 11:56:29;;;;;;;;;;;;;;;18.85;62.32;99863.75;4433413;32;34185;-76
2023/05/14 11:58:57;;;;;;;;;;;;;;;19.81;59.70;99868.25;4448918;32;34320;-75
2023/05/14 12:01:24;;;;;;;;;;;;;;;19.56;60.18;99861.84;4439881;32;34314;-76
2023/05/14 12:03:51;;;;;;;;;;;;;;;19.55;60.27;99851.38;4446358;32;33814;-78
2023/05/14 12:06:19;;;;;;;;;;;;;;;18.89;63.28;99851.56;4450607;32;34029;-79
2023/05/14 12:08:47;;;;;;;;;;;;;;;18.79;64.15;99847.00;4449469;32;33893;-76
2023/05/14 12:11:19;;;;;;;;;;;;;;;18.86;63.40;99831.38;4443356;32;34039;-77
2023/05/14 12:13:46;;;;;;;;;;;;;;;18.54;64.53;99830.94;4450209;32;33358;-76
2023/05/14 12:16:14;;;;;;;;;;;;;;;18.15;66.01;99832.16;4452781;32;33515;-74
2023/05/14 12:18:42;;;;;;;;;;;;;;;18.04;66.24;99825.87;4439623;32;33887;-75
2023/05/14 12:21:10;;;;;;;;;;;;;;;18.37;65.59;99817.63;4445926;32;32808;-75
2023/05/14 12:23:38;;;;;;;;;;;;;;;17.87;66.53;99813.41;4437113;32;33386;-77
2023/05/14 12:26:07;;;;;;;;;;;;;;;18.00;65.94;99803.09;4438548;32;34332;-76
2023/05/14 12:28:34;;;;;;;;;;;;;;;18.96;62.97;99811.37;4426266;32;33602;-74
2023/05/14 12:31:04;;;;;;;;;;;;;;;17.00;69.10;99815.38;4419382;32;33508;-74
2023/05/14 12:33:32;;;;;;;;;;;;;;;17.30;68.88;99804.56;4446461;32;33828;-76
2023/05/14 12:36:00;;;;;;;;;;;;;;;17.60;67.37;99807.72;4442584;32;33409;-78
2023/05/14 12:38:40;;;;;;;;;;;;;;;17.40;68.27;99810.87;4425138;32;34065;-77
2023/05/14 12:41:07;;;;;;;;;;;;;;;17.53;68.01;99811.06;4431142;32;32574;-78